Time;durP1;ratioP1;P1;durP2;ratioP2;P2;SDS_P1;SDS_P2;PMS_P1;PMS_P2;Temp;Humidity;BMP_temperature;BMP_pressure;BME280_temperature;BME280_humidity;BME280_pressure;Samples;Min_cycle;Max_cycle;Signal;HPM_P1;HPM_P2
2022/03/07 00:01:05;;;;;;;6.20;5.70;;;;;;;10.71;32.75;96711.34;5004173;28;20207;-79
2022/03/07 00:03:36;;;;;;;6.80;6.10;;;;;;;12.58;32.30;97177.81;5013432;28;20194;-78
2022/03/07 00:06:05;;;;;;;5.90;5.30;;;;;;;14.58;31.75;97487.34;5017736;28;20209;-77
2022/03/07 00:08:31;;;;;;;5.90;5.30;;;;;;;17.16;32.61;97840.16;5032824;28;20220;-78
2022/03/07 00:11:02;;;;;;;6.07;5.47;;;;;;;13.34;32.31;97309.25;5018194;28;20626;-77
2022/03/07 00:13:39;;;;;;;6.60;6.00;;;;;;;7.22;32.45;96328.78;4983561;28;20559;-77
2022/03/07 00:16:06;;;;;;;7.67;5.73;;;;;;;13.48;32.21;97183.06;5002683;28;20193;-79
2022/03/07 00:18:32;;;;;;;6.10;5.40;;;;;;;13.98;32.40;97277.56;5034277;28;20592;-79
2022/03/07 00:21:01;;;;;;;5.47;4.93;;;;;;;14.38;31.98;97344.69;5024797;28;20288;-78
2022/03/07 00:23:31;;;;;;;6.77;5.80;;;;;;;16.52;32.53;97720.03;5016103;28;20237;-80
2022/03/07 00:26:05;;;;;;;6.77;5.90;;;;;;;17.81;32.50;97935.88;5017457;28;20292;-77
2022/03/07 00:28:32;;;;;;;6.20;5.60;;;;;;;17.82;32.00;97941.81;5034511;28;20241;-79
2022/03/07 00:30:59;;;;;;;5.80;5.30;;;;;;;17.82;32.26;97950.34;5014428;28;20193;-79
2022/03/07 00:33:26;;;;;;;6.20;5.57;;;;;;;12.42;32.30;97069.38;5032725;28;20206;-84
2022/03/07 00:36:03;;;;;;;6.37;5.77;;;;;;;15.68;32.46;97595.56;5015727;28;20243;-85
2022/03/07 00:38:29;;;;;;;6.03;5.43;;;;;;;5.62;32.38;95954.81;4998715;28;20237;-85
2022/03/07 00:40:59;;;;;;;6.40;5.70;;;;;;;7.49;31.78;96418.00;4996304;28;20203;-84
2022/03/07 00:43:26;;;;;;;6.30;5.70;;;;;;;14.83;31.96;97603.44;4964934;28;21007;-85
2022/03/07 00:45:56;;;;;;;6.30;5.70;;;;;;;6.14;31.94;95929.13;5031344;28;20213;-85
2022/03/07 00:48:23;;;;;;;6.47;5.87;;;;;;;17.81;32.50;97958.78;5029430;28;20253;-85
2022/03/07 00:50:56;;;;;;;6.03;5.53;;;;;;;17.82;32.00;97949.44;5013510;28;20206;-84
2022/03/07 00:53:24;;;;;;;5.83;5.23;;;;;;;17.82;31.81;97945.25;5014815;28;20210;-85
2022/03/07 00:55:53;;;;;;;6.17;5.57;;;;;;;16.08;31.74;97646.69;5015618;28;20292;-78
2022/03/07 00:58:20;;;;;;;6.23;5.63;;;;;;;17.83;32.19;97952.06;5015595;28;20600;-80
2022/03/07 01:00:47;;;;;;;6.73;5.63;;;;;;;17.82;31.64;97942.72;5014880;28;20198;-77
2022/03/07 01:03:14;;;;;;;7.70;5.67;;;;;;;17.84;32.11;97947.88;5013452;28;20332;-78
2022/03/07 01:05:46;;;;;;;5.97;5.40;;;;;;;17.85;31.73;97950.50;5029737;28;20620;-78
2022/03/07 01:08:14;;;;;;;6.23;5.63;;;;;;;16.55;31.49;97723.56;5019414;28;20216;-76
2022/03/07 01:10:41;;;;;;;5.57;5.07;;;;;;;16.83;32.03;97758.88;5026331;28;20194;-77
2022/03/07 01:13:10;;;;;;;6.07;5.43;;;;;;;17.88;31.30;97947.22;4997388;28;20224;-77
2022/03/07 01:15:39;;;;;;;6.40;5.80;;;;;;;17.89;31.42;97954.91;4996356;28;20206;-80
2022/03/07 01:18:20;;;;;;;6.90;5.70;;;;;;;17.90;31.47;97958.34;5011732;28;20699;-77
2022/03/07 01:20:46;;;;;;;6.07;5.57;;;;;;;16.90;31.39;97793.94;5027326;28;20202;-79
2022/03/07 01:23:18;;;;;;;5.83;5.33;;;;;;;15.46;31.38;97607.00;5014118;28;20194;-78
2022/03/07 01:25:45;;;;;;;5.30;4.80;;;;;;;17.89;31.17;97947.28;5028978;28;20695;-79
2022/03/07 01:28:14;;;;;;;5.87;5.30;;;;;;;17.09;31.47;97810.19;5031212;28;20197;-78
2022/03/07 01:30:41;;;;;;;6.07;5.47;;;;;;;16.34;31.75;97695.41;5015875;28;20205;-78
2022/03/07 01:33:17;;;;;;;6.07;5.57;;;;;;;17.11;31.79;97811.13;4997079;28;20199;-76
2022/03/07 01:35:44;;;;;;;8.63;5.80;;;;;;;17.85;31.60;97940.31;4984170;28;20667;-80
2022/03/07 01:38:14;;;;;;;6.13;5.50;;;;;;;17.85;31.42;97936.91;4992226;28;20712;-78
2022/03/07 01:40:41;;;;;;;6.10;5.57;;;;;;;17.84;31.43;97940.25;5030761;28;20228;-80
2022/03/07 01:43:08;;;;;;;6.00;5.40;;;;;;;17.18;31.54;97838.59;5030002;28;20233;-78
2022/03/07 01:45:35;;;;;;;6.50;5.60;;;;;;;17.06;31.76;97804.06;4996227;28;20581;-85
2022/03/07 01:48:01;;;;;;;5.90;5.33;;;;;;;17.80;32.03;97934.13;4974442;28;20281;-84
2022/03/07 02:14:46;;;;;;;6.67;5.13;;;;;;;15.18;31.49;97508.41;5121648;22;20307;-85
2022/03/07 02:17:13;;;;;;;6.07;5.27;;;;;;;16.74;31.77;97761.81;5016335;28;20681;-85
2022/03/07 02:19:39;;;;;;;6.03;5.43;;;;;;;16.12;31.70;97643.50;5033447;28;20217;-85
2022/03/07 02:22:06;;;;;;;5.40;4.90;;;;;;;17.10;31.73;97813.56;5017451;28;20204;-85
2022/03/07 02:24:35;;;;;;;5.77;5.17;;;;;;;16.76;31.87;97759.34;5040276;28;20201;-86
2022/03/07 02:27:05;;;;;;;5.87;5.27;;;;;;;16.16;31.69;97647.94;5031872;28;20259;-85
2022/03/07 02:29:32;;;;;;;6.27;5.43;;;;;;;16.50;31.45;97692.06;5005894;28;20218;-85
2022/03/07 02:31:59;;;;;;;6.70;5.57;;;;;;;17.33;31.53;97843.56;5016830;28;20740;-85
2022/03/07 02:34:26;;;;;;;5.23;4.73;;;;;;;16.48;31.53;97713.91;5022407;28;20198;-85
2022/03/07 02:36:55;;;;;;;5.57;5.07;;;;;;;15.55;31.37;97524.81;5011884;28;20255;-85
2022/03/07 02:39:22;;;;;;;6.47;5.53;;;;;;;16.02;30.81;97636.22;5007745;28;20273;-86
2022/03/07 02:41:49;;;;;;;5.80;5.00;;;;;;;15.94;31.00;97622.28;4996466;28;20206;-86
2022/03/07 02:44:18;;;;;;;6.70;5.20;;;;;;;15.93;30.90;97595.19;5010943;28;20295;-85
2022/03/07 02:46:45;;;;;;;5.23;4.73;;;;;;;15.99;30.35;97605.66;5002283;28;20202;-84
2022/03/07 02:49:14;;;;;;;7.87;5.17;;;;;;;17.19;30.69;97827.63;5014266;28;20225;-86
2022/03/07 02:51:43;;;;;;;5.23;4.73;;;;;;;17.27;30.16;97820.41;5013602;28;20253;-85
2022/03/07 02:54:12;;;;;;;5.40;4.90;;;;;;;16.31;30.24;97666.47;5021955;28;20192;-85
2022/03/07 02:56:40;;;;;;;5.43;4.93;;;;;;;15.25;30.26;97502.88;5019503;28;20737;-85
2022/03/07 02:59:07;;;;;;;5.20;4.77;;;;;;;16.20;30.42;97660.84;4997213;28;20272;-85
2022/03/07 03:01:40;;;;;;;5.93;5.17;;;;;;;15.82;30.19;97576.91;5032861;28;20631;-85
2022/03/07 03:04:11;;;;;;;5.70;4.80;;;;;;;16.13;29.92;97628.38;5037261;28;20197;-85
2022/03/07 03:06:42;;;;;;;5.43;4.93;;;;;;;15.68;30.45;97661.44;5051701;28;20197;-85
2022/03/07 03:09:12;;;;;;;5.43;4.93;;;;;;;15.00;30.25;97486.28;5012080;28;20300;-86
2022/03/07 03:11:39;;;;;;;4.80;4.40;;;;;;;11.36;30.69;96901.16;5001475;28;20205;-85
2022/03/07 03:14:06;;;;;;;6.00;4.63;;;;;;;12.28;30.35;97009.75;5032634;28;20283;-86
2022/03/07 03:16:33;;;;;;;5.30;4.63;;;;;;;15.55;30.37;97546.72;5029849;28;20197;-85
2022/03/07 03:19:00;;;;;;;4.63;4.23;;;;;;;13.92;31.00;97278.91;5018157;28;20317;-85
2022/03/07 03:21:30;;;;;;;5.07;4.57;;;;;;;14.76;30.51;97404.03;5013214;28;20206;-86
2022/03/07 03:23:57;;;;;;;4.60;4.20;;;;;;;15.24;30.41;97538.22;5013409;28;20210;-86
2022/03/07 03:26:28;;;;;;;5.60;5.00;;;;;;;13.41;30.46;97259.19;5012287;28;20203;-84
2022/03/07 03:28:54;;;;;;;5.07;4.57;;;;;;;13.00;30.24;97129.91;5018976;28;20272;-86
2022/03/07 03:31:21;;;;;;;4.70;4.30;;;;;;;11.92;30.05;96990.03;5028923;28;20516;-86
2022/03/07 03:33:49;;;;;;;5.20;4.70;;;;;;;14.40;30.30;97362.47;4998416;28;20244;-85
2022/03/07 03:36:16;;;;;;;5.40;4.67;;;;;;;16.44;29.90;97719.63;5034306;28;20193;-85
2022/03/07 03:38:43;;;;;;;4.63;4.23;;;;;;;16.12;29.83;97682.41;5051143;28;20213;-85
2022/03/07 03:41:10;;;;;;;5.43;4.70;;;;;;;12.50;29.83;97035.41;5052345;28;20208;-85
2022/03/07 03:43:37;;;;;;;5.13;4.63;;;;;;;16.20;29.89;97687.88;5052415;28;20576;-85
2022/03/07 03:48:54;;;;;;;5.53;4.53;;;;;;;17.65;29.99;97966.38;5020512;28;20187;-90
2022/03/07 03:51:35;;;;;;;5.07;4.30;;;;;;;13.19;30.12;97189.78;5004980;28;20167;-90
2022/03/07 03:54:18;;;;;;;5.27;4.77;;;;;;;10.30;30.23;96735.66;4993114;28;20166;-90
2022/03/07 03:57:05;;;;;;;4.97;4.27;;;;;;;10.25;29.75;96811.50;4986834;28;20196;-89
2022/03/07 04:00:34;;;;;;;4.73;4.20;;;;;;;17.57;29.62;97972.78;5001964;28;20207;-89
2022/03/07 04:03:18;;;;;;;5.20;4.67;;;;;;;11.52;29.33;96880.28;5001050;28;20170;-91
2022/03/07 04:05:59;;;;;;;4.83;4.30;;;;;;;11.09;30.06;96872.78;4973479;28;20225;-90
2022/03/07 04:09:04;;;;;;;5.20;4.70;;;;;;;8.63;29.70;96461.22;4972229;28;20183;-90
2022/03/07 04:12:04;;;;;;;4.70;4.30;;;;;;;15.79;30.16;97664.53;4976702;28;20168;-90
2022/03/07 04:14:48;;;;;;;4.63;4.23;;;;;;;11.74;30.32;96921.03;4994752;28;20195;-86
2022/03/07 04:17:15;;;;;;;5.53;4.37;;;;;;;10.46;30.45;96742.47;4984426;28;20277;-85
2022/03/07 04:19:42;;;;;;;4.73;4.20;;;;;;;16.30;30.43;97718.00;4992132;28;20226;-85
2022/03/07 04:22:09;;;;;;;4.97;4.47;;;;;;;15.47;30.21;97576.69;4992262;28;20238;-85
2022/03/07 04:24:36;;;;;;;4.87;4.30;;;;;;;15.51;30.61;97587.88;4976441;28;20199;-87
2022/03/07 04:27:03;;;;;;;3.90;3.60;;;;;;;9.92;30.87;96677.25;4976090;28;20195;-85
2022/03/07 04:29:30;;;;;;;4.57;4.17;;;;;;;10.72;30.88;96886.41;4972473;28;20297;-85
2022/03/07 04:31:56;;;;;;;4.83;4.00;;;;;;;16.02;30.43;97686.91;4990666;28;20269;-85
2022/03/07 04:34:23;;;;;;;4.50;4.10;;;;;;;15.34;30.21;97550.59;4975117;28;20200;-85
2022/03/07 04:36:51;;;;;;;4.50;4.10;;;;;;;15.47;30.35;97569.09;4973325;28;20211;-85
2022/03/07 04:39:18;;;;;;;5.10;4.00;;;;;;;15.60;30.62;97626.34;4954078;28;20226;-85
2022/03/07 04:41:45;;;;;;;4.20;3.80;;;;;;;15.08;30.51;97518.84;4980320;28;20203;-83
2022/03/07 04:44:12;;;;;;;4.70;4.20;;;;;;;16.35;30.56;97726.72;4967177;28;20203;-86
2022/03/07 04:46:39;;;;;;;4.13;3.70;;;;;;;14.71;30.33;97461.09;4989845;28;20607;-85
2022/03/07 04:49:09;;;;;;;4.47;4.07;;;;;;;15.49;30.26;97602.09;4966415;28;20215;-86
2022/03/07 04:51:40;;;;;;;4.60;4.20;;;;;;;17.42;30.19;97905.00;4962153;28;20199;-85
2022/03/07 04:54:07;;;;;;;4.77;4.37;;;;;;;15.75;30.44;97628.03;4960635;28;20207;-86
2022/03/07 04:56:34;;;;;;;4.30;3.90;;;;;;;15.79;30.60;97619.81;4973478;28;20223;-86
2022/03/07 04:59:00;;;;;;;4.83;4.17;;;;;;;16.44;30.04;97740.78;4982357;28;20740;-86
2022/03/07 05:01:36;;;;;;;4.67;4.23;;;;;;;16.72;30.22;97775.22;4961722;28;20204;-86
2022/03/07 05:04:05;;;;;;;4.37;3.80;;;;;;;15.25;30.58;97518.06;4989403;28;20603;-86
2022/03/07 05:06:34;;;;;;;4.33;3.97;;;;;;;15.36;30.67;97554.06;4974172;28;20211;-85
2022/03/07 05:09:01;;;;;;;4.30;3.90;;;;;;;15.75;30.29;97602.69;4960883;28;20222;-86
2022/03/07 05:11:28;;;;;;;4.37;3.97;;;;;;;16.06;30.24;97671.06;4980033;28;20207;-86
2022/03/07 05:16:44;;;;;;;4.27;3.87;;;;;;;11.55;30.66;96971.91;5066212;23;20195;-90
2022/03/07 05:22:27;;;;;;;4.40;4.00;;;;;;;10.29;30.11;96733.94;4986298;28;20279;-89
2022/03/07 05:25:09;;;;;;;5.10;4.60;;;;;;;10.78;30.19;96787.94;4997085;28;20175;-89
2022/03/07 05:27:51;;;;;;;4.90;4.27;;;;;;;14.38;29.53;97435.69;4984605;28;20207;-90
2022/03/07 05:30:32;;;;;;;5.23;4.73;;;;;;;16.37;29.72;97758.09;4969563;28;20194;-90
2022/03/07 05:33:18;;;;;;;5.97;5.07;;;;;;;17.62;29.19;98039.94;4970019;28;20195;-90
2022/03/07 05:35:52;;;;;;;5.20;4.70;;;;;;;12.88;29.77;97165.31;4966224;28;20196;-90
2022/03/07 05:38:47;;;;;;;5.67;5.10;;;;;;;12.76;29.39;97171.31;4968871;28;20202;-90
2022/03/07 05:41:39;;;;;;;5.67;5.00;;;;;;;17.60;28.96;97972.03;4965686;28;20208;-90
2022/03/07 05:44:19;;;;;;;6.03;5.43;;;;;;;17.60;29.63;97980.56;4997713;28;20279;-89
2022/03/07 05:47:00;;;;;;;5.37;4.87;;;;;;;10.62;29.74;96775.25;4980857;28;20180;-89
2022/03/07 05:49:46;;;;;;;7.00;5.43;;;;;;;16.51;29.54;97856.13;4969200;28;20222;-90
2022/03/07 05:52:13;;;;;;;5.00;4.60;;;;;;;11.68;29.96;96981.94;4982110;28;20184;-90
2022/03/07 05:54:48;;;;;;;5.87;5.23;;;;;;;10.50;29.53;96827.25;4981715;28;20230;-89
2022/03/07 05:57:59;;;;;;;6.60;5.27;;;;;;;13.44;30.27;97246.75;4983984;28;20179;-90
2022/03/07 06:01:30;;;;;;;6.40;5.63;;;;;;;10.33;29.96;96812.84;4996142;28;20207;-91
2022/03/07 06:04:15;;;;;;;5.93;5.33;;;;;;;13.09;29.77;97274.19;4998415;28;20180;-90
2022/03/07 06:07:26;;;;;;;5.60;5.00;;;;;;;12.38;29.67;97077.53;4985123;28;20186;-90
2022/03/07 06:10:08;;;;;;;5.63;5.03;;;;;;;17.67;29.79;97990.22;4996603;28;20176;-90
2022/03/07 06:12:54;;;;;;;6.20;5.57;;;;;;;11.78;29.87;97033.69;4996894;28;20235;-90
2022/03/07 06:15:43;;;;;;;5.40;4.83;;;;;;;17.70;29.92;97989.50;4984028;28;20187;-91
2022/03/07 06:18:47;;;;;;;5.43;4.93;;;;;;;12.28;29.92;97073.63;4999353;28;20171;-91
2022/03/07 06:21:30;;;;;;;6.60;5.40;;;;;;;17.72;29.90;98077.78;4971194;28;20193;-91
2022/03/07 06:24:11;;;;;;;5.30;4.80;;;;;;;13.17;31.08;97206.50;4999465;28;20228;-90
2022/03/07 06:26:58;;;;;;;6.80;5.47;;;;;;;13.53;31.11;97246.41;4985934;28;20168;-90
2022/03/07 06:29:39;;;;;;;7.83;6.37;;;;;;;13.63;31.90;97350.53;4982262;28;20232;-90
2022/03/07 06:32:08;;;;;;;7.27;6.53;;;;;;;13.66;31.91;97257.28;5015508;28;20168;-89
2022/03/07 06:34:36;;;;;;;10.80;6.77;;;;;;;12.31;31.95;97027.56;4998022;28;20182;-85
2022/03/07 06:37:03;;;;;;;8.37;6.63;;;;;;;17.35;32.14;97905.50;4980889;28;20689;-83
2022/03/07 06:39:29;;;;;;;7.30;6.50;;;;;;;17.68;32.56;97964.00;4962680;28;20330;-84
2022/03/07 06:41:56;;;;;;;8.20;6.10;;;;;;;17.32;32.45;97896.03;4981772;28;20283;-84
2022/03/07 06:44:23;;;;;;;7.30;6.53;;;;;;;17.21;32.53;97881.03;4958119;28;20231;-85
2022/03/07 06:46:50;;;;;;;7.43;6.00;;;;;;;17.44;32.57;97913.63;4965602;28;20238;-85
2022/03/07 06:49:16;;;;;;;7.23;5.80;;;;;;;17.21;32.51;97871.75;4981750;28;20537;-84
2022/03/07 06:51:44;;;;;;;6.73;6.03;;;;;;;17.22;32.20;97877.69;4950826;28;20203;-85
2022/03/07 06:54:11;;;;;;;6.10;5.50;;;;;;;17.01;33.03;97829.22;4951639;28;20241;-84
2022/03/07 06:56:38;;;;;;;6.73;5.93;;;;;;;17.46;32.88;97912.00;4996243;28;20745;-84
2022/03/07 06:59:04;;;;;;;6.30;5.70;;;;;;;17.01;32.41;97829.22;4950768;28;20780;-84
2022/03/07 07:01:31;;;;;;;6.70;6.00;;;;;;;17.23;33.14;97867.63;4965807;28;20203;-86
2022/03/07 07:03:58;;;;;;;8.60;7.10;;;;;;;17.53;33.09;97920.03;4964891;28;20204;-85
2022/03/07 07:06:24;;;;;;;10.47;8.67;;;;;;;17.52;32.67;97931.00;4982926;28;20199;-84
2022/03/07 07:08:51;;;;;;;10.87;8.23;;;;;;;16.90;32.91;97820.16;4983015;28;20255;-85
2022/03/07 07:11:18;;;;;;;12.47;8.57;;;;;;;17.61;32.62;97958.53;4967347;28;20231;-85
2022/03/07 07:13:44;;;;;;;33.83;23.80;;;;;;;17.11;32.51;97861.06;4986352;28;20238;-85
2022/03/07 07:16:11;;;;;;;26.63;21.00;;;;;;;17.70;32.40;97974.25;4951064;29;20319;-84
2022/03/07 07:18:37;;;;;;;26.37;18.30;;;;;;;16.51;33.06;97780.03;4950767;29;20308;-85
2022/03/07 07:21:04;;;;;;;22.30;17.23;;;;;;;17.15;32.96;97894.31;4948576;28;20207;-86
2022/03/07 07:23:31;;;;;;;31.40;23.10;;;;;;;17.83;31.08;98033.44;4983384;28;20270;-86
2022/03/07 07:25:57;;;;;;;25.37;19.67;;;;;;;16.82;30.64;97840.88;4974676;28;20227;-87
2022/03/07 07:28:24;;;;;;;25.80;19.43;;;;;;;16.87;31.12;97870.78;4966882;28;20227;-86
2022/03/07 07:30:51;;;;;;;20.63;16.97;;;;;;;17.35;31.62;97941.91;4953039;28;20764;-86
2022/03/07 07:33:18;;;;;;;20.80;16.60;;;;;;;17.39;32.35;97959.06;4975583;28;20295;-86
2022/03/07 07:35:45;;;;;;;17.63;14.37;;;;;;;16.89;32.56;97884.44;4946387;28;20681;-87
2022/03/07 07:38:11;;;;;;;20.03;14.20;;;;;;;17.31;32.72;97989.94;4953358;28;20203;-86
2022/03/07 07:40:38;;;;;;;16.70;14.03;;;;;;;17.41;32.76;97982.88;4962984;28;20592;-86
2022/03/07 07:43:04;;;;;;;17.03;14.03;;;;;;;16.84;32.72;97898.53;4969596;28;20206;-86
2022/03/07 07:45:31;;;;;;;20.00;14.40;;;;;;;17.07;32.96;97938.72;4953428;28;20318;-86
2022/03/07 07:47:59;;;;;;;16.97;14.10;;;;;;;17.22;32.96;97969.13;4966963;28;20299;-86
2022/03/07 07:50:26;;;;;;;17.27;13.80;;;;;;;17.29;32.95;97984.78;5009214;23;20651;-77
2022/03/07 07:52:55;;;;;;;16.80;13.07;;;;;;;17.36;33.23;97994.47;5015729;28;20245;-77
2022/03/07 07:55:22;;;;;;;15.67;13.23;;;;;;;16.73;33.25;97898.78;5017521;28;20248;-76
2022/03/07 07:57:48;;;;;;;17.17;12.40;;;;;;;17.06;33.70;97957.31;5011034;28;20229;-78
2022/03/07 08:00:19;;;;;;;14.93;12.30;;;;;;;16.17;33.14;97815.34;5000721;28;20246;-76
2022/03/07 08:02:47;;;;;;;15.33;11.70;;;;;;;17.03;32.98;97956.25;5007104;28;20264;-73
2022/03/07 08:05:14;;;;;;;15.90;12.30;;;;;;;16.22;33.14;97823.22;4987428;28;20289;-78
2022/03/07 08:07:42;;;;;;;13.60;11.10;;;;;;;16.63;33.07;97906.66;5000712;28;20337;-77
2022/03/07 08:10:13;;;;;;;12.13;10.83;;;;;;;17.60;33.35;98066.06;4995715;28;20223;-78
2022/03/07 08:12:39;;;;;;;12.43;10.50;;;;;;;16.66;33.46;97906.81;5008161;28;20249;-77
2022/03/07 08:15:11;;;;;;;12.47;11.13;;;;;;;14.95;33.00;97624.34;4977388;28;20716;-74
2022/03/07 08:17:41;;;;;;;12.97;10.97;;;;;;;15.95;33.47;97798.88;5015924;28;20598;-73
2022/03/07 08:20:08;;;;;;;12.40;10.60;;;;;;;16.51;33.24;97900.91;4976659;28;20285;-73
2022/03/07 08:22:35;;;;;;;10.37;9.33;;;;;;;16.94;33.38;97974.41;5013930;28;20641;-76
2022/03/07 08:25:02;;;;;;;11.20;9.93;;;;;;;17.24;33.23;98034.47;4987795;28;20248;-75
2022/03/07 08:27:28;;;;;;;12.67;10.50;;;;;;;16.69;33.08;97938.31;5014752;28;20207;-76
2022/03/07 08:29:55;;;;;;;10.33;9.23;;;;;;;16.84;33.46;97961.16;5004902;28;20280;-75
2022/03/07 08:32:21;;;;;;;13.77;10.23;;;;;;;17.61;33.38;98094.13;5011971;28;20211;-75
2022/03/07 08:34:48;;;;;;;11.77;9.67;;;;;;;16.94;33.21;97978.59;4986765;28;20770;-76
2022/03/07 08:37:14;;;;;;;10.63;9.53;;;;;;;17.31;33.54;98040.75;5014671;28;20289;-75
2022/03/07 08:39:41;;;;;;;11.10;8.87;;;;;;;17.64;33.54;98103.56;4987683;28;20264;-77
2022/03/07 08:42:08;;;;;;;12.20;9.40;;;;;;;17.26;33.12;98043.03;4999667;28;20298;-76
2022/03/07 08:44:34;;;;;;;10.67;9.37;;;;;;;17.32;33.31;98050.13;4981590;28;20246;-76
2022/03/07 08:47:01;;;;;;;11.33;9.60;;;;;;;16.67;33.78;97926.34;4998823;28;20219;-76
2022/03/07 08:49:28;;;;;;;12.30;9.67;;;;;;;17.28;33.19;98045.66;5016767;28;20218;-76
2022/03/07 08:51:57;;;;;;;11.70;9.20;;;;;;;17.37;33.43;98063.94;5003540;28;20221;-74
2022/03/07 08:54:24;;;;;;;10.40;8.90;;;;;;;17.62;33.73;98106.00;4995661;28;20619;-75
2022/03/07 08:56:50;;;;;;;10.47;8.63;;;;;;;16.62;33.60;97932.84;5007129;28;20237;-78
2022/03/07 08:59:17;;;;;;;11.43;8.83;;;;;;;17.60;33.77;98105.09;5006625;28;20213;-75
2022/03/07 09:01:43;;;;;;;10.27;9.13;;;;;;;16.91;33.70;97994.56;5002754;28;20256;-75
2022/03/07 09:04:10;;;;;;;11.27;8.97;;;;;;;17.26;33.38;98065.88;5009773;28;20233;-75
2022/03/07 09:06:37;;;;;;;9.83;8.80;;;;;;;17.59;33.59;98122.78;4987827;28;20648;-76
2022/03/07 09:09:03;;;;;;;9.97;8.97;;;;;;;16.58;34.12;97956.28;5005977;28;20830;-75
2022/03/07 09:11:50;;;;;;;10.37;8.60;;;;;;;15.64;33.83;97783.66;4976847;28;20569;-75
2022/03/07 09:14:16;;;;;;;9.50;8.50;;;;;;;17.54;33.95;98129.28;4997478;28;20202;-75
2022/03/07 09:16:43;;;;;;;10.33;8.63;;;;;;;17.24;34.11;98074.22;4994649;28;20203;-75
2022/03/07 09:19:10;;;;;;;9.30;8.30;;;;;;;17.57;33.99;98139.63;4977031;28;20206;-78
2022/03/07 09:21:36;;;;;;;9.10;8.20;;;;;;;16.94;33.71;98024.31;4973447;28;20245;-76
2022/03/07 09:24:03;;;;;;;9.67;8.67;;;;;;;17.02;33.62;98039.16;4982580;28;20206;-75
2022/03/07 09:26:30;;;;;;;9.50;8.50;;;;;;;17.56;33.78;98140.41;4984524;28;20238;-76
2022/03/07 09:28:57;;;;;;;9.07;8.00;;;;;;;17.55;33.88;98129.38;5005213;28;20301;-73
2022/03/07 09:31:23;;;;;;;9.03;8.13;;;;;;;16.66;33.95;97976.22;4975895;28;20219;-76
2022/03/07 09:33:50;;;;;;;9.10;8.20;;;;;;;17.55;34.06;98144.59;4978787;28;20206;-75
2022/03/07 09:36:17;;;;;;;9.30;8.33;;;;;;;16.62;33.87;97983.56;5005281;28;20495;-76
2022/03/07 09:38:43;;;;;;;9.70;8.70;;;;;;;17.23;33.82;98095.34;4987411;28;20230;-78
2022/03/07 09:41:10;;;;;;;9.57;8.33;;;;;;;17.02;33.70;98051.00;5004750;28;20703;-75
2022/03/07 09:43:36;;;;;;;9.83;8.40;;;;;;;17.53;33.75;98142.78;4974990;28;20632;-76
2022/03/07 09:46:04;;;;;;;9.67;8.67;;;;;;;16.80;34.06;98021.00;5009921;28;20664;-78
2022/03/07 09:48:30;;;;;;;9.43;8.13;;;;;;;17.18;34.30;98084.94;5007228;28;20317;-76
2022/03/07 09:50:58;;;;;;;9.10;8.13;;;;;;;17.50;33.55;98135.00;4990500;28;20318;-74
2022/03/07 09:53:29;;;;;;;9.37;7.97;;;;;;;16.61;33.72;97994.53;5022383;28;20577;-76
2022/03/07 09:55:56;;;;;;;9.40;8.40;;;;;;;17.52;33.45;98146.09;5003542;28;20284;-77
2022/03/07 09:58:22;;;;;;;9.43;8.20;;;;;;;16.61;34.10;97987.75;4998412;28;20261;-76
2022/03/07 10:00:49;;;;;;;9.80;8.60;;;;;;;16.86;33.65;98036.56;4978607;28;20254;-76
2022/03/07 10:03:18;;;;;;;8.83;7.93;;;;;;;17.21;33.89;98096.91;5004960;28;20293;-76
2022/03/07 10:05:46;;;;;;;9.50;8.23;;;;;;;15.93;33.79;97867.22;5017224;28;20237;-75
2022/03/07 10:08:29;;;;;;;8.50;7.57;;;;;;;16.66;34.06;97991.44;4983971;28;20206;-75
2022/03/07 10:10:56;;;;;;;9.47;8.47;;;;;;;17.16;33.53;98089.03;4978517;28;20223;-76
2022/03/07 10:13:23;;;;;;;8.57;7.77;;;;;;;17.25;33.44;98109.88;4988942;28;20233;-75
2022/03/07 10:16:09;;;;;;;9.03;8.13;;;;;;;17.57;33.92;98159.94;5007558;28;20248;-76
2022/03/07 10:18:36;;;;;;;10.70;9.60;;;;;;;16.90;32.74;98040.16;4999873;28;20209;-76
2022/03/07 10:21:04;;;;;;;12.37;10.87;;;;;;;17.20;30.96;98100.25;4972795;28;20230;-76
2022/03/07 10:23:30;;;;;;;13.50;10.97;;;;;;;16.89;31.27;98041.81;4992394;28;20281;-76
2022/03/07 10:26:05;;;;;;;12.90;11.60;;;;;;;16.35;30.81;97949.91;4988410;28;20288;-76
2022/03/07 10:28:36;;;;;;;14.40;11.80;;;;;;;16.93;29.80;98051.34;5006827;28;20859;-77
2022/03/07 10:31:13;;;;;;;12.57;11.27;;;;;;;17.40;29.81;98137.78;4985107;28;20246;-76
2022/03/07 10:33:40;;;;;;;13.03;11.70;;;;;;;17.53;29.13;98163.13;4994321;28;20499;-76
2022/03/07 10:36:06;;;;;;;15.70;11.93;;;;;;;17.52;30.04;98167.31;5008405;28;20245;-77
2022/03/07 10:38:33;;;;;;;12.17;11.00;;;;;;;16.55;29.58;97987.44;4999029;28;20276;-76
2022/03/07 10:40:59;;;;;;;11.67;10.57;;;;;;;17.21;30.30;98099.47;4988552;28;20250;-76
2022/03/07 10:43:27;;;;;;;11.20;10.03;;;;;;;17.17;30.93;98095.88;5006711;28;20361;-80
2022/03/07 10:45:59;;;;;;;13.43;9.37;;;;;;;17.48;31.77;98144.19;4973655;28;20286;-74
2022/03/07 10:48:28;;;;;;;11.87;8.70;;;;;;;16.39;32.05;97952.72;4998117;28;20202;-76
2022/03/07 10:50:58;;;;;;;10.67;9.20;;;;;;;17.48;31.58;98140.00;4967884;28;20323;-79
2022/03/07 10:53:25;;;;;;;12.10;9.00;;;;;;;16.83;31.63;98030.44;5009106;28;20194;-77
2022/03/07 10:55:58;;;;;;;9.97;8.90;;;;;;;16.97;31.90;98058.38;5011703;28;20206;-77
2022/03/07 10:58:26;;;;;;;12.13;9.40;;;;;;;16.53;31.61;97975.47;4985679;28;20221;-76
2022/03/07 11:01:00;;;;;;;15.37;12.87;;;;;;;16.91;29.87;98042.78;5002296;28;20297;-76
2022/03/07 11:03:29;;;;;;;15.23;12.13;;;;;;;16.23;29.88;97926.41;4989968;28;20241;-76
2022/03/07 11:05:56;;;;;;;14.17;11.93;;;;;;;16.04;29.61;97896.59;5004484;28;20293;-78
2022/03/07 11:08:24;;;;;;;14.57;11.93;;;;;;;17.17;28.88;98097.56;4984298;28;20207;-77
2022/03/07 11:10:53;;;;;;;13.40;11.50;;;;;;;16.14;28.75;97910.69;4979617;28;20310;-77
2022/03/07 11:13:29;;;;;;;15.47;10.87;;;;;;;14.28;28.45;97579.16;4988596;28;20538;-78
2022/03/07 11:15:57;;;;;;;12.33;11.10;;;;;;;15.03;28.39;97717.63;4971820;28;20234;-78
2022/03/07 11:18:25;;;;;;;12.97;11.50;;;;;;;16.54;28.05;97982.25;4988250;28;20241;-77
2022/03/07 11:20:56;;;;;;;11.33;10.23;;;;;;;15.36;28.10;97776.88;4978985;28;20281;-77
2022/03/07 11:23:22;;;;;;;12.27;10.83;;;;;;;17.09;27.62;98076.81;4989171;28;20742;-77
2022/03/07 11:25:50;;;;;;;11.73;10.57;;;;;;;17.11;27.84;98081.97;4979122;28;20237;-77
2022/03/07 11:28:17;;;;;;;11.57;10.37;;;;;;;17.04;27.56;98068.06;4989163;28;20209;-78
2022/03/07 11:30:44;;;;;;;13.40;11.30;;;;;;;17.12;27.71;98079.53;4998399;28;20222;-77
2022/03/07 11:33:15;;;;;;;12.37;10.70;;;;;;;17.16;28.04;98071.28;5004826;28;20572;-75
2022/03/07 11:35:52;;;;;;;12.57;10.13;;;;;;;17.06;27.90;98063.94;4990667;28;20302;-76
2022/03/07 11:38:24;;;;;;;13.07;11.30;;;;;;;16.98;28.03;98093.09;5019579;28;20190;-76
2022/03/07 11:40:55;;;;;;;14.63;11.53;;;;;;;16.30;28.20;97923.41;4995321;28;20364;-77
2022/03/07 11:43:24;;;;;;;13.83;10.47;;;;;;;17.38;27.91;98109.75;5001323;28;20779;-76
2022/03/07 11:45:52;;;;;;;12.03;10.73;;;;;;;17.11;28.00;98056.59;5017932;28;20318;-77
2022/03/07 11:48:19;;;;;;;11.30;10.20;;;;;;;16.70;28.81;97985.78;4991434;28;20206;-78
2022/03/07 11:50:45;;;;;;;13.70;12.10;;;;;;;17.36;27.93;98108.81;4983420;28;20300;-78
2022/03/07 11:53:14;;;;;;;13.97;11.97;;;;;;;17.01;28.20;98050.13;4988045;28;21218;-78
2022/03/07 11:55:49;;;;;;;13.60;12.20;;;;;;;16.77;28.02;98003.06;5003816;28;20289;-78
2022/03/07 11:58:50;;;;;;;12.60;11.33;;;;;;;15.33;27.93;97751.38;5002978;28;20256;-77
2022/03/07 12:01:17;;;;;;;13.13;11.87;;;;;;;15.71;27.32;97805.13;4990367;28;20305;-80
2022/03/07 12:03:44;;;;;;;13.13;11.87;;;;;;;16.11;26.85;97877.53;4999186;28;20202;-79
2022/03/07 12:06:13;;;;;;;12.63;11.30;;;;;;;16.39;27.53;97918.84;4988965;28;20245;-78
2022/03/07 12:09:00;;;;;;;11.47;10.27;;;;;;;17.33;28.22;98078.16;4988934;28;20206;-78
2022/03/07 12:11:34;;;;;;;11.20;10.10;;;;;;;16.26;28.75;97906.28;5006709;28;20623;-78
2022/03/07 12:14:08;;;;;;;11.13;10.03;;;;;;;16.48;29.51;97932.06;5007262;28;20297;-79
2022/03/07 12:16:39;;;;;;;10.80;9.77;;;;;;;17.33;29.65;98079.81;4998545;28;20205;-78
2022/03/07 12:19:14;;;;;;;10.43;9.13;;;;;;;17.03;29.97;98020.63;5005531;28;20782;-79